createdAt,value
2022-09-30T00:00:36.170Z,92311.31
2022-09-30T00:03:39.166Z,92300.91
2022-09-30T00:06:42.375Z,92304.16
2022-09-30T00:09:45.423Z,92302.19
2022-09-30T00:12:48.746Z,92296.31
2022-09-30T00:15:51.706Z,92298.25
2022-09-30T00:18:56.999Z,92302.81
2022-09-30T00:22:00.172Z,92299.50
2022-09-30T00:25:04.532Z,92309.88
2022-09-30T00:28:08.724Z,92304.03
2022-09-30T00:31:17.292Z,92303.41
2022-09-30T00:34:21.379Z,92309.25
2022-09-30T00:37:26.452Z,92307.34
2022-09-30T00:40:30.763Z,92306.06
2022-09-30T00:43:41.925Z,92308.06
2022-09-30T00:46:45.185Z,92307.44
2022-09-30T00:49:48.344Z,92306.16
2022-09-30T00:53:22.490Z,92317.84
2022-09-30T00:56:28.905Z,92321.75
2022-09-30T00:59:37.632Z,92324.31
2022-09-30T01:02:40.736Z,92335.38
2022-09-30T01:05:43.998Z,92335.41
2022-09-30T01:08:47.832Z,92329.50
2022-09-30T01:11:50.786Z,92342.50
2022-09-30T01:14:56.311Z,92341.16
2022-09-30T01:18:20.759Z,92337.84
2022-09-30T01:21:46.976Z,92345.50
2022-09-30T01:25:07.688Z,92345.88
2022-09-30T01:28:13.433Z,92337.16
2022-09-30T01:31:35.039Z,92342.25
2022-09-30T01:35:20.181Z,92338.78
2022-09-30T01:38:30.629Z,92341.84
2022-09-30T01:41:55.325Z,92346.84
2022-09-30T01:45:14.883Z,92355.59
2022-09-30T01:48:25.536Z,92353.28
2022-09-30T01:51:42.635Z,92349.66
2022-09-30T01:54:56.763Z,92351.31
2022-09-30T01:58:15.318Z,92350.25
2022-09-30T02:01:25.971Z,92342.63
2022-09-30T02:04:43.736Z,92352.28
2022-09-30T02:07:53.026Z,92356.38
2022-09-30T02:11:02.399Z,92347.47
2022-09-30T02:14:21.776Z,92352.53
2022-09-30T02:17:34.588Z,92349.16
2022-09-30T02:20:42.153Z,92343.09
2022-09-30T02:23:48.082Z,92344.56
2022-09-30T02:26:55.353Z,92342.41
2022-09-30T02:30:01.171Z,92346.19
2022-09-30T02:33:09.706Z,92349.69
2022-09-30T02:36:16.824Z,92344.69
2022-09-30T02:39:34.832Z,92340.44
2022-09-30T02:42:39.778Z,92334.53
2022-09-30T02:46:19.944Z,92337.84
2022-09-30T02:49:46.333Z,92338.88
2022-09-30T02:53:20.770Z,92341.97
2022-09-30T02:56:47.081Z,92346.66
2022-09-30T02:59:53.442Z,92351.53
2022-09-30T03:03:11.169Z,92347.75
2022-09-30T03:06:14.856Z,92349.94
2022-09-30T03:09:18.310Z,92347.25
2022-09-30T03:12:27.463Z,92356.06
2022-09-30T03:15:43.434Z,92357.81
2022-09-30T03:19:26.538Z,92358.81
2022-09-30T03:22:58.460Z,92360.31
2022-09-30T03:26:01.422Z,92355.41
2022-09-30T03:29:13.997Z,92356.38
2022-09-30T03:32:28.958Z,92352.91
2022-09-30T03:35:49.591Z,92346.34
2022-09-30T03:39:14.069Z,92349.28
2022-09-30T03:42:27.703Z,92356.03
2022-09-30T03:45:30.617Z,92345.78
2022-09-30T03:48:35.301Z,92339.69
2022-09-30T03:51:40.538Z,92343.75
2022-09-30T03:54:53.352Z,92340.34
2022-09-30T03:57:58.294Z,92342.97
2022-09-30T04:01:01.306Z,92343.34
2022-09-30T04:04:04.329Z,92333.38
2022-09-30T04:07:08.084Z,92335.31
2022-09-30T04:10:12.489Z,92331.66
2022-09-30T04:13:15.499Z,92348.69
2022-09-30T04:16:18.662Z,92351.84
2022-09-30T04:19:21.744Z,92346.31
2022-09-30T04:22:26.586Z,92344.31
2022-09-30T04:25:29.620Z,92353.91
2022-09-30T04:28:33.047Z,92353.91
2022-09-30T04:31:36.133Z,92350.03
2022-09-30T04:34:39.140Z,92357.69
2022-09-30T04:37:44.183Z,92357.19
2022-09-30T04:40:47.168Z,92351.13
2022-09-30T04:43:50.257Z,92349.66
2022-09-30T04:46:53.193Z,92348.47
2022-09-30T04:49:56.592Z,92347.69
2022-09-30T04:52:59.539Z,92346.34
2022-09-30T04:56:02.724Z,92341.91
2022-09-30T04:59:05.778Z,92337.03
2022-09-30T05:02:10.371Z,92340.19
2022-09-30T05:05:13.606Z,92335.06
2022-09-30T05:08:16.669Z,92329.41
2022-09-30T05:11:22.257Z,92313.13
2022-09-30T05:14:25.220Z,92328.84
2022-09-30T05:17:31.529Z,92317.44
2022-09-30T05:20:34.475Z,92318.34
2022-09-30T05:23:37.659Z,92318.56
2022-09-30T05:26:41.081Z,92318.41
2022-09-30T05:29:44.625Z,92306.00
2022-09-30T05:32:47.699Z,92302.78
2022-09-30T05:35:50.710Z,92298.84
2022-09-30T05:38:54.531Z,92303.88
2022-09-30T05:41:58.730Z,92306.41
2022-09-30T05:45:01.779Z,92300.59
2022-09-30T05:48:05.252Z,92303.25
2022-09-30T05:51:10.047Z,92307.94
2022-09-30T05:54:13.303Z,92308.31
2022-09-30T05:57:16.237Z,92304.66
2022-09-30T06:00:20.437Z,92297.06
2022-09-30T06:03:23.577Z,92299.19
2022-09-30T06:06:27.261Z,92307.66
2022-09-30T06:09:30.840Z,92299.84
2022-09-30T06:12:33.987Z,92300.19
2022-09-30T06:15:39.521Z,92295.03
2022-09-30T06:18:43.036Z,92293.22
2022-09-30T06:21:46.025Z,92296.09
2022-09-30T06:24:54.199Z,92288.00
2022-09-30T06:27:58.706Z,92283.00
2022-09-30T06:31:05.472Z,92284.53
2022-09-30T06:34:09.102Z,92282.69
2022-09-30T06:37:14.322Z,92285.69
2022-09-30T06:40:17.384Z,92278.75
2022-09-30T06:43:21.451Z,92277.56
2022-09-30T06:46:30.506Z,92281.34
2022-09-30T06:49:47.316Z,92285.84
2022-09-30T06:52:52.520Z,92280.22
2022-09-30T06:55:59.215Z,92274.38
2022-09-30T06:59:02.428Z,92284.03
2022-09-30T07:02:05.828Z,92276.97
2022-09-30T07:05:09.529Z,92280.34
2022-09-30T07:08:12.543Z,92275.06
2022-09-30T07:11:16.236Z,92271.88
2022-09-30T07:14:19.232Z,92275.31
2022-09-30T07:17:22.352Z,92280.66
2022-09-30T07:20:25.734Z,92275.31
2022-09-30T07:23:28.710Z,92284.16
2022-09-30T07:26:32.303Z,92284.09
2022-09-30T07:29:50.403Z,92282.63
2022-09-30T07:32:58.228Z,92276.44
2022-09-30T07:36:04.344Z,92272.81
2022-09-30T07:39:09.718Z,92284.03
2022-09-30T07:42:21.638Z,92269.31
2022-09-30T07:45:25.964Z,92271.38
2022-09-30T07:48:58.209Z,92271.31
2022-09-30T07:52:02.178Z,92284.09
2022-09-30T07:55:05.433Z,92277.16
2022-09-30T07:58:11.520Z,92272.63
2022-09-30T08:01:15.673Z,92272.84
2022-09-30T08:04:20.787Z,92264.75
2022-09-30T08:07:23.878Z,92269.88
2022-09-30T08:10:26.836Z,92267.03
2022-09-30T08:13:30.108Z,92272.06
2022-09-30T08:16:33.415Z,92262.59
2022-09-30T08:19:36.826Z,92269.28
2022-09-30T08:22:39.748Z,92271.72
2022-09-30T08:25:43.073Z,92261.38
2022-09-30T08:28:47.949Z,92261.59
2022-09-30T08:31:52.312Z,92266.22
2022-09-30T08:34:55.370Z,92265.88
2022-09-30T08:37:58.433Z,92271.31
2022-09-30T08:41:32.678Z,92269.50
2022-09-30T08:44:49.235Z,92267.06
2022-09-30T08:48:24.296Z,92267.41
2022-09-30T08:51:32.504Z,92260.56
2022-09-30T08:54:40.027Z,92256.06
2022-09-30T08:57:47.583Z,92257.81
2022-09-30T09:00:55.702Z,92260.34
2022-09-30T09:04:00.282Z,92251.22
2022-09-30T09:07:20.337Z,92260.47
2022-09-30T09:10:34.652Z,92253.63
2022-09-30T09:13:43.669Z,92259.31
2022-09-30T09:17:13.096Z,92261.81
2022-09-30T09:20:22.439Z,92261.69
2022-09-30T09:23:26.685Z,92264.16
2022-09-30T09:26:37.343Z,92263.78
2022-09-30T09:29:59.060Z,92258.91
2022-09-30T09:33:16.842Z,92259.91
2022-09-30T09:36:34.941Z,92265.41
2022-09-30T09:40:14.954Z,92258.41
2022-09-30T09:43:44.348Z,92267.84
2022-09-30T09:47:02.657Z,92262.81
2022-09-30T09:50:17.343Z,92261.00
2022-09-30T09:53:40.881Z,92272.34
2022-09-30T09:56:43.854Z,92266.63
2022-09-30T10:00:23.080Z,92265.44
2022-09-30T10:03:28.959Z,92270.78
2022-09-30T10:06:46.621Z,92278.72
2022-09-30T10:09:49.628Z,92276.78
2022-09-30T10:12:52.601Z,92283.38
2022-09-30T10:15:58.069Z,92278.72
2022-09-30T10:19:03.957Z,92282.03
2022-09-30T10:22:10.434Z,92284.06
2022-09-30T10:25:16.662Z,92291.25
2022-09-30T10:28:28.662Z,92292.59
2022-09-30T10:31:42.362Z,92302.41
2022-09-30T10:34:45.777Z,92303.75
2022-09-30T10:37:57.139Z,92301.75
2022-09-30T10:41:00.748Z,92299.72
2022-09-30T10:44:08.202Z,92299.66
2022-09-30T10:47:17.468Z,92308.19
2022-09-30T10:50:25.628Z,92306.28
2022-09-30T10:53:32.966Z,92309.63
2022-09-30T10:56:43.976Z,92303.09
2022-09-30T10:59:48.833Z,92305.78
2022-09-30T11:03:08.681Z,92308.28
2022-09-30T11:06:15.709Z,92305.78
2022-09-30T11:09:28.123Z,92312.44
2022-09-30T11:12:50.489Z,92314.50
2022-09-30T11:16:25.824Z,92323.09
2022-09-30T11:19:49.129Z,92329.13
2022-09-30T11:23:13.551Z,92322.03
2022-09-30T11:26:28.681Z,92318.22
2022-09-30T11:29:56.473Z,92316.38
2022-09-30T11:33:11.384Z,92319.75
2022-09-30T11:36:43.102Z,92313.22
2022-09-30T11:39:59.456Z,92312.00
2022-09-30T11:43:14.228Z,92317.34
2022-09-30T11:46:54.573Z,92320.69
2022-09-30T11:50:16.095Z,92321.47
2022-09-30T11:53:25.526Z,92324.19
2022-09-30T11:56:51.674Z,92325.59
2022-09-30T11:59:58.499Z,92328.25
2022-09-30T12:03:18.272Z,92326.88
2022-09-30T12:06:47.995Z,92318.38
2022-09-30T12:09:58.819Z,92314.47
2022-09-30T12:13:07.697Z,92314.44
2022-09-30T12:16:18.398Z,92321.66
2022-09-30T12:19:51.844Z,92316.41
2022-09-30T12:23:21.834Z,92315.09
2022-09-30T12:26:25.617Z,92322.97
2022-09-30T12:30:02.823Z,92317.06
2022-09-30T12:33:18.612Z,92320.44
2022-09-30T12:36:47.246Z,92312.56
2022-09-30T12:40:17.848Z,92319.75
2022-09-30T12:43:57.646Z,92324.38
2022-09-30T12:47:46.383Z,92331.56
2022-09-30T12:50:53.669Z,92317.84
2022-09-30T12:54:05.413Z,92312.59
2022-09-30T12:57:10.560Z,92310.59
2022-09-30T13:00:25.124Z,92317.13
2022-09-30T13:03:28.457Z,92311.19
2022-09-30T13:07:03.814Z,92321.59
2022-09-30T13:10:29.701Z,92330.75
2022-09-30T13:13:35.465Z,92330.19
2022-09-30T13:17:12.046Z,92338.06
2022-09-30T13:20:57.732Z,92336.25
2022-09-30T13:24:01.241Z,92329.09
2022-09-30T13:27:16.028Z,92325.69
2022-09-30T13:30:19.442Z,92332.81
2022-09-30T13:33:43.657Z,92329.50
2022-09-30T13:37:06.118Z,92326.34
2022-09-30T13:40:21.350Z,92332.91
2022-09-30T13:43:44.067Z,92329.66
2022-09-30T13:46:52.395Z,92336.84
2022-09-30T13:50:21.331Z,92329.03
2022-09-30T13:53:56.586Z,92338.28
2022-09-30T13:57:01.734Z,92350.72
2022-09-30T14:00:09.749Z,92342.38
2022-09-30T14:03:50.175Z,92339.13
2022-09-30T14:07:05.883Z,92339.88
2022-09-30T14:10:28.184Z,92341.91
2022-09-30T14:13:53.928Z,92341.94
2022-09-30T14:17:15.604Z,92334.78
2022-09-30T14:20:32.706Z,92338.78
2022-09-30T14:23:37.253Z,92330.31
2022-09-30T14:26:55.473Z,92326.50
2022-09-30T14:30:03.769Z,92330.53
2022-09-30T14:33:25.165Z,92341.78
2022-09-30T14:36:28.484Z,92345.09
2022-09-30T14:39:33.310Z,92351.72
2022-09-30T14:42:39.390Z,92340.03
2022-09-30T14:45:46.581Z,92340.19
2022-09-30T14:48:51.289Z,92334.38
2022-09-30T14:51:54.588Z,92323.28
2022-09-30T14:54:58.636Z,92321.31
2022-09-30T14:58:25.300Z,92311.47
2022-09-30T15:01:36.639Z,92293.16
2022-09-30T15:04:42.653Z,92293.16
2022-09-30T15:07:45.885Z,92282.03
2022-09-30T15:10:56.911Z,92280.72
2022-09-30T15:14:05.299Z,92270.97
2022-09-30T15:17:19.597Z,92271.69
2022-09-30T15:20:34.195Z,92270.34
2022-09-30T15:23:40.728Z,92269.75
2022-09-30T15:26:44.487Z,92260.59
2022-09-30T15:30:16.377Z,92252.75
2022-09-30T15:33:23.091Z,92251.44
2022-09-30T15:36:26.832Z,92254.72
2022-09-30T15:39:50.638Z,92260.59
2022-09-30T15:43:03.539Z,92271.03
2022-09-30T15:46:29.664Z,92274.97
2022-09-30T15:49:46.026Z,92273.69
2022-09-30T15:52:51.697Z,92275.03
2022-09-30T15:55:56.900Z,92275.78
2022-09-30T15:59:01.881Z,92280.44
2022-09-30T16:02:05.041Z,92281.94
2022-09-30T16:05:08.613Z,92285.38
2022-09-30T16:08:22.686Z,92285.50
2022-09-30T16:11:46.424Z,92285.03
2022-09-30T16:15:16.765Z,92279.88
2022-09-30T16:18:22.910Z,92282.56
2022-09-30T16:21:53.100Z,92281.34
2022-09-30T16:25:04.621Z,92286.63
2022-09-30T16:28:15.776Z,92291.94
2022-09-30T16:31:19.560Z,92295.25
2022-09-30T16:34:24.829Z,92309.03
2022-09-30T16:37:28.101Z,92317.63
2022-09-30T16:40:32.876Z,92315.13
2022-09-30T16:43:36.094Z,92303.41
2022-09-30T16:46:39.382Z,92316.47
2022-09-30T16:49:43.815Z,92310.59
2022-09-30T16:52:47.040Z,92315.81
2022-09-30T16:55:50.820Z,92328.19
2022-09-30T16:58:53.947Z,92338.56
2022-09-30T17:01:57.103Z,92342.47
2022-09-30T17:05:00.167Z,92337.91
2022-09-30T17:08:03.323Z,92335.28
2022-09-30T17:11:06.494Z,92333.31
2022-09-30T17:14:09.540Z,92323.53
2022-09-30T17:17:14.004Z,92327.44
2022-09-30T17:20:17.313Z,92340.44
2022-09-30T17:23:22.011Z,92346.38
2022-09-30T17:26:25.084Z,92347.03
2022-09-30T17:29:32.486Z,92345.06
2022-09-30T17:32:37.251Z,92330.03
2022-09-30T17:35:41.793Z,92335.28
2022-09-30T17:38:44.820Z,92322.88
2022-09-30T17:42:06.301Z,92322.22
2022-09-30T17:45:09.954Z,92337.88
2022-09-30T17:48:14.632Z,92330.03
2022-09-30T17:51:17.800Z,92314.41
2022-09-30T17:54:20.977Z,92311.84
2022-09-30T17:57:24.093Z,92300.13
2022-09-30T18:00:29.083Z,92293.59
2022-09-30T18:03:32.983Z,92289.03
2022-09-30T18:06:36.490Z,92288.38
2022-09-30T18:09:39.909Z,92289.72
2022-09-30T18:12:43.053Z,92290.41
2022-09-30T18:15:47.396Z,92276.16
2022-09-30T18:18:50.688Z,92272.94
2022-09-30T18:21:53.825Z,92278.75
2022-09-30T18:25:15.216Z,92283.91
2022-09-30T18:28:18.688Z,92286.44
2022-09-30T18:31:35.203Z,92292.97
2022-09-30T18:34:38.634Z,92283.84
2022-09-30T18:37:43.020Z,92277.97
2022-09-30T18:40:46.714Z,92274.75
2022-09-30T18:43:54.097Z,92265.06
2022-09-30T18:46:57.167Z,92259.28
2022-09-30T18:50:00.223Z,92271.72
2022-09-30T18:53:09.421Z,92266.56
2022-09-30T18:56:13.281Z,92260.00
2022-09-30T18:59:19.252Z,92248.22
2022-09-30T19:02:25.118Z,92239.66
2022-09-30T19:05:28.587Z,92236.34
2022-09-30T19:08:31.721Z,92224.53
2022-09-30T19:11:35.818Z,92225.19
2022-09-30T19:14:40.358Z,92229.72
2022-09-30T19:17:44.472Z,92225.84
2022-09-30T19:20:47.770Z,92234.31
2022-09-30T19:23:53.981Z,92217.47
2022-09-30T19:26:57.166Z,92222.66
2022-09-30T19:30:00.538Z,92218.78
2022-09-30T19:33:03.668Z,92224.75
2022-09-30T19:36:14.793Z,92221.59
2022-09-30T19:39:18.708Z,92204.78
2022-09-30T19:42:22.010Z,92195.72
2022-09-30T19:45:26.830Z,92183.38
2022-09-30T19:48:31.704Z,92177.44
2022-09-30T19:51:35.231Z,92167.66
2022-09-30T19:54:41.748Z,92150.69
2022-09-30T19:57:45.063Z,92131.03
2022-09-30T20:00:55.157Z,92132.91
2022-09-30T20:04:00.745Z,92141.25
2022-09-30T20:07:03.813Z,92120.97
2022-09-30T20:10:07.361Z,92112.47
2022-09-30T20:13:10.462Z,92104.72
2022-09-30T20:16:15.752Z,92100.72
2022-09-30T20:19:20.030Z,92092.88
2022-09-30T20:22:27.241Z,92089.66
2022-09-30T20:25:32.818Z,92081.81
2022-09-30T20:28:36.737Z,92081.88
2022-09-30T20:31:42.170Z,92095.63
2022-09-30T20:34:46.119Z,92101.56
2022-09-30T20:37:49.217Z,92096.38
2022-09-30T20:40:59.452Z,92094.47
2022-09-30T20:44:07.214Z,92078.84
2022-09-30T20:47:10.428Z,92082.19
2022-09-30T20:50:13.556Z,92082.84
2022-09-30T20:53:16.952Z,92083.00
2022-09-30T20:56:22.282Z,92086.31
2022-09-30T20:59:25.419Z,92077.91
2022-09-30T21:02:29.563Z,92076.59
2022-09-30T21:05:32.720Z,92086.97
2022-09-30T21:08:43.647Z,92088.88
2022-09-30T21:11:46.704Z,92090.75
2022-09-30T21:14:49.754Z,92080.28
2022-09-30T21:17:55.522Z,92087.38
2022-09-30T21:21:03.587Z,92087.28
2022-09-30T21:24:06.718Z,92064.41
2022-09-30T21:27:10.348Z,92060.41
2022-09-30T21:30:13.511Z,92057.75
2022-09-30T21:33:16.766Z,92052.53
2022-09-30T21:36:21.798Z,92042.66
2022-09-30T21:39:24.806Z,92035.44
2022-09-30T21:42:28.138Z,92036.09
2022-09-30T21:45:31.192Z,92043.91
2022-09-30T21:48:34.682Z,92027.63
2022-09-30T21:51:37.720Z,92025.66
2022-09-30T21:54:41.052Z,92043.25
2022-09-30T21:57:46.446Z,92049.81
2022-09-30T22:00:49.896Z,92055.72
2022-09-30T22:03:52.962Z,92045.94
2022-09-30T22:06:55.971Z,92054.53
2022-09-30T22:09:58.991Z,92052.75
2022-09-30T22:13:02.128Z,92050.31
2022-09-30T22:16:06.990Z,92033.50
2022-09-30T22:19:09.951Z,92020.56
2022-09-30T22:22:13.011Z,92010.28
2022-09-30T22:25:16.393Z,92010.34
2022-09-30T22:28:19.569Z,92003.81
2022-09-30T22:31:25.580Z,92000.50
2022-09-30T22:34:47.504Z,92001.78
2022-09-30T22:38:20.047Z,92001.06
2022-09-30T22:41:23.027Z,92004.94
2022-09-30T22:44:29.055Z,91997.09
2022-09-30T22:47:32.197Z,92002.28
2022-09-30T22:50:36.672Z,92004.22
2022-09-30T22:53:39.657Z,92017.25
2022-09-30T22:56:42.603Z,92017.25
2022-09-30T22:59:48.175Z,92019.16
2022-09-30T23:02:53.445Z,92030.09
2022-09-30T23:06:05.844Z,92039.13
2022-09-30T23:09:09.871Z,92044.88
2022-09-30T23:12:14.529Z,92047.47
2022-09-30T23:15:17.579Z,92043.59
2022-09-30T23:18:20.567Z,92049.53
2022-09-30T23:21:23.602Z,92061.31
2022-09-30T23:24:26.652Z,92058.66
2022-09-30T23:27:30.223Z,92069.09
2022-09-30T23:30:33.350Z,92061.88
2022-09-30T23:33:37.717Z,92071.63
2022-09-30T23:36:41.167Z,92059.94
2022-09-30T23:39:44.673Z,92072.97
2022-09-30T23:42:47.635Z,92082.03
2022-09-30T23:45:50.663Z,92089.84
2022-09-30T23:48:53.821Z,92106.13
2022-09-30T23:51:56.920Z,92113.88
2022-09-30T23:54:59.952Z,92113.22
2022-09-30T23:58:02.995Z,92128.28
